createdAt,value
2019-05-22T00:00:29.036Z,99.90
2019-05-22T00:02:57.932Z,99.90
2019-05-22T00:05:31.302Z,99.90
2019-05-22T00:07:58.473Z,99.90
2019-05-22T00:10:25.637Z,99.90
2019-05-22T00:12:53.917Z,99.90
2019-05-22T00:15:23.281Z,99.90
2019-05-22T00:17:50.627Z,99.90
2019-05-22T00:20:22.018Z,99.90
2019-05-22T00:22:50.972Z,99.90
2019-05-22T00:25:22.638Z,99.90
2019-05-22T00:27:49.410Z,99.90
2019-05-22T00:30:17.588Z,99.90
2019-05-22T00:32:46.796Z,99.90
2019-05-22T00:35:14.064Z,99.90
2019-05-22T00:37:41.922Z,99.90
2019-05-22T00:40:11.886Z,99.90
2019-05-22T00:42:39.593Z,99.90
2019-05-22T00:45:11.817Z,99.90
2019-05-22T00:47:41.226Z,99.90
2019-05-22T00:50:12.197Z,99.90
2019-05-22T00:52:49.975Z,99.90
2019-05-22T00:55:22.152Z,99.90
2019-05-22T00:58:02.876Z,99.90
2019-05-22T01:00:49.774Z,99.90
2019-05-22T01:03:21.758Z,99.90
2019-05-22T01:05:48.497Z,99.90
2019-05-22T01:08:15.895Z,99.90
2019-05-22T01:10:44.549Z,99.90
2019-05-22T01:13:11.433Z,99.90
2019-05-22T01:15:40.222Z,99.90
2019-05-22T01:18:07.434Z,99.90
2019-05-22T01:20:36.491Z,99.90
2019-05-22T01:23:03.375Z,99.90
2019-05-22T01:25:30.967Z,99.90
2019-05-22T01:27:58.843Z,99.90
2019-05-22T01:30:27.816Z,99.90
2019-05-22T01:32:56.432Z,99.90
2019-05-22T01:35:28.330Z,99.90
2019-05-22T01:37:57.546Z,99.90
2019-05-22T01:40:32.214Z,99.90
2019-05-22T01:42:59.603Z,99.90
2019-05-22T01:45:27.141Z,99.90
2019-05-22T01:48:02.163Z,99.90
2019-05-22T01:50:52.157Z,99.90
2019-05-22T01:53:21.247Z,99.90
2019-05-22T01:55:50.712Z,99.90
2019-05-22T01:58:19.107Z,99.90
2019-05-22T02:00:47.302Z,99.90
2019-05-22T02:03:14.371Z,99.90
2019-05-22T02:05:42.148Z,99.90
2019-05-22T02:08:09.820Z,99.90
2019-05-22T02:10:39.892Z,99.90
2019-05-22T02:13:09.070Z,99.90
2019-05-22T02:15:37.255Z,99.90
2019-05-22T02:18:14.659Z,99.90
2019-05-22T02:20:41.741Z,99.90
2019-05-22T02:23:09.099Z,99.90
2019-05-22T02:25:37.151Z,99.90
2019-05-22T02:28:05.853Z,99.90
2019-05-22T02:30:35.585Z,99.90
2019-05-22T02:33:04.287Z,99.90
2019-05-22T02:35:30.977Z,99.90
2019-05-22T02:37:58.377Z,99.90
2019-05-22T02:40:28.857Z,99.90
2019-05-22T02:42:56.251Z,99.90
2019-05-22T02:45:24.009Z,99.90
2019-05-22T02:47:52.703Z,99.90
2019-05-22T02:50:19.677Z,99.90
2019-05-22T02:52:46.388Z,99.90
2019-05-22T02:55:14.061Z,99.90
2019-05-22T02:57:41.440Z,99.90
2019-05-22T03:00:08.487Z,99.90
2019-05-22T03:02:39.781Z,99.90
2019-05-22T03:05:08.973Z,99.90
2019-05-22T03:07:36.104Z,99.90
2019-05-22T03:10:05.322Z,99.90
2019-05-22T03:12:33.988Z,99.90
2019-05-22T03:15:01.368Z,99.90
2019-05-22T03:17:30.381Z,99.90
2019-05-22T03:19:59.418Z,99.90
2019-05-22T03:22:30.604Z,99.90
2019-05-22T03:25:01.547Z,99.90
2019-05-22T03:27:41.695Z,99.90
2019-05-22T03:30:17.336Z,99.90
2019-05-22T03:32:44.874Z,99.90
2019-05-22T03:35:12.453Z,99.90
2019-05-22T03:37:40.792Z,99.90
2019-05-22T03:40:08.621Z,99.90
2019-05-22T03:42:36.025Z,99.90
2019-05-22T03:45:07.321Z,99.90
2019-05-22T03:47:35.463Z,99.90
2019-05-22T03:50:06.013Z,99.90
2019-05-22T03:52:33.654Z,99.90
2019-05-22T03:55:00.307Z,99.90
2019-05-22T03:57:27.057Z,99.90
2019-05-22T03:59:55.417Z,99.90
2019-05-22T04:02:22.059Z,99.90
2019-05-22T04:04:48.616Z,99.90
2019-05-22T04:07:16.614Z,99.90
2019-05-22T04:09:44.343Z,99.90
2019-05-22T04:12:12.658Z,99.90
2019-05-22T04:14:39.802Z,99.90
2019-05-22T04:17:09.152Z,99.90
2019-05-22T04:19:48.833Z,99.90
2019-05-22T04:22:06.670Z,99.90
2019-05-22T04:24:33.423Z,99.90
2019-05-22T04:27:00.565Z,99.90
2019-05-22T04:29:27.730Z,99.90
2019-05-22T04:32:06.128Z,99.90
2019-05-22T04:34:33.068Z,99.90
2019-05-22T04:37:00.216Z,99.90
2019-05-22T04:39:29.171Z,99.90
2019-05-22T04:41:58.392Z,99.90
2019-05-22T04:44:26.053Z,99.90
2019-05-22T04:46:53.822Z,99.90
2019-05-22T04:49:21.121Z,99.90
2019-05-22T04:51:48.764Z,99.90
2019-05-22T04:54:15.925Z,99.90
2019-05-22T04:56:42.486Z,99.90
2019-05-22T04:59:11.094Z,99.90
2019-05-22T05:02:04.626Z,99.90
2019-05-22T05:04:31.937Z,99.90
2019-05-22T05:06:59.693Z,99.90
2019-05-22T05:09:27.184Z,99.90
2019-05-22T05:11:55.827Z,99.90
2019-05-22T05:14:22.634Z,99.90
2019-05-22T05:16:50.151Z,99.90
2019-05-22T05:19:17.547Z,99.90
2019-05-22T05:21:44.357Z,99.90
2019-05-22T05:24:11.007Z,99.90
2019-05-22T05:26:38.593Z,99.90
2019-05-22T05:29:08.550Z,99.90
2019-05-22T05:31:37.229Z,99.90
2019-05-22T05:34:25.851Z,99.90
2019-05-22T05:36:54.544Z,99.90
2019-05-22T05:39:37.180Z,99.90
2019-05-22T05:42:04.356Z,99.90
2019-05-22T05:44:31.084Z,99.90
2019-05-22T05:46:57.880Z,99.90
2019-05-22T05:49:26.344Z,99.90
2019-05-22T05:51:54.906Z,99.90
2019-05-22T05:54:22.767Z,99.90
2019-05-22T05:56:51.321Z,99.90
2019-05-22T05:59:19.955Z,99.90
2019-05-22T06:01:48.533Z,99.90
2019-05-22T06:04:34.726Z,99.90
2019-05-22T06:07:02.322Z,99.90
2019-05-22T06:09:30.292Z,99.90
2019-05-22T06:11:58.923Z,99.90
2019-05-22T06:14:28.866Z,99.90
2019-05-22T06:17:16.144Z,99.90
2019-05-22T06:19:52.718Z,99.90
2019-05-22T06:22:19.679Z,99.90
2019-05-22T06:24:59.316Z,99.90
2019-05-22T06:27:30.444Z,99.90
2019-05-22T06:30:04.131Z,99.90
2019-05-22T06:32:51.878Z,99.90
2019-05-22T06:35:18.733Z,99.90
2019-05-22T06:38:11.589Z,99.90
2019-05-22T06:40:39.473Z,99.90
2019-05-22T06:43:23.446Z,99.90
2019-05-22T06:45:50.507Z,99.90
2019-05-22T06:48:17.241Z,99.90
2019-05-22T06:50:43.872Z,99.90
2019-05-22T06:53:11.609Z,99.90
2019-05-22T06:55:38.172Z,99.90
2019-05-22T06:58:04.833Z,99.90
2019-05-22T07:00:31.492Z,99.90
2019-05-22T07:03:00.030Z,99.90
2019-05-22T07:05:27.489Z,99.90
2019-05-22T07:07:54.760Z,99.90
2019-05-22T07:10:21.521Z,99.90
2019-05-22T07:12:50.718Z,99.90
2019-05-22T07:15:21.000Z,99.90
2019-05-22T07:17:48.527Z,99.90
2019-05-22T07:20:15.971Z,99.90
2019-05-22T07:22:42.874Z,99.90
2019-05-22T07:25:12.002Z,99.90
2019-05-22T07:27:39.370Z,99.90
2019-05-22T07:30:08.406Z,99.90
2019-05-22T07:32:35.996Z,99.90
2019-05-22T07:35:07.805Z,99.90
2019-05-22T07:37:43.094Z,99.90
2019-05-22T07:40:11.857Z,99.90
2019-05-22T07:42:38.792Z,99.90
2019-05-22T07:45:06.451Z,99.90
2019-05-22T07:47:34.183Z,99.90
2019-05-22T07:50:00.947Z,99.90
2019-05-22T07:52:27.745Z,99.90
2019-05-22T07:54:55.045Z,99.90
2019-05-22T07:57:22.525Z,99.90
2019-05-22T07:59:50.286Z,99.90
2019-05-22T08:02:18.813Z,99.90
2019-05-22T08:04:45.864Z,99.90
2019-05-22T08:07:14.619Z,99.90
2019-05-22T08:09:41.302Z,99.90
2019-05-22T08:12:10.462Z,99.90
2019-05-22T08:14:37.632Z,99.90
2019-05-22T08:17:04.578Z,99.90
2019-05-22T08:19:31.736Z,99.90
2019-05-22T08:22:07.476Z,99.90
2019-05-22T08:24:27.237Z,99.90
2019-05-22T08:26:55.152Z,99.90
2019-05-22T08:29:21.923Z,99.90
2019-05-22T08:31:51.014Z,99.90
2019-05-22T08:34:18.367Z,99.90
2019-05-22T08:36:48.039Z,99.90
2019-05-22T08:39:15.578Z,99.90
2019-05-22T08:41:45.813Z,99.90
2019-05-22T08:44:16.678Z,99.90
2019-05-22T08:46:43.922Z,99.90
2019-05-22T08:49:11.578Z,99.90
2019-05-22T08:51:38.343Z,99.90
2019-05-22T08:54:06.008Z,99.90
2019-05-22T08:56:37.908Z,99.90
2019-05-22T08:59:18.850Z,99.90
2019-05-22T09:01:33.827Z,99.90
2019-05-22T09:04:00.392Z,99.90
2019-05-22T09:06:28.147Z,99.90
2019-05-22T09:08:54.898Z,99.90
2019-05-22T09:11:21.550Z,99.90
2019-05-22T09:13:48.299Z,99.90
2019-05-22T09:16:15.933Z,99.90
2019-05-22T09:18:42.680Z,99.90
2019-05-22T09:21:11.448Z,99.90
2019-05-22T09:23:40.277Z,99.90
2019-05-22T09:26:07.714Z,99.90
2019-05-22T09:28:34.474Z,99.90
2019-05-22T09:31:01.285Z,99.90
2019-05-22T09:33:29.454Z,99.90
2019-05-22T09:35:56.311Z,99.90
2019-05-22T09:38:23.151Z,99.90
2019-05-22T09:40:49.999Z,99.90
2019-05-22T09:43:16.566Z,99.90
2019-05-22T09:45:43.321Z,99.90
2019-05-22T09:48:10.602Z,99.90
2019-05-22T09:50:37.568Z,99.90
2019-05-22T09:53:06.086Z,99.90
2019-05-22T09:55:33.291Z,99.90
2019-05-22T09:57:59.813Z,99.90
2019-05-22T10:00:26.654Z,99.90
2019-05-22T10:02:53.636Z,99.90
2019-05-22T10:05:20.412Z,99.90
2019-05-22T10:08:00.035Z,99.90
2019-05-22T10:10:16.177Z,99.90
2019-05-22T10:12:43.347Z,99.90
2019-05-22T10:15:11.160Z,99.90
2019-05-22T10:17:41.845Z,99.90
2019-05-22T10:20:10.411Z,99.90
2019-05-22T10:22:38.259Z,99.90
2019-05-22T10:25:15.652Z,99.90
2019-05-22T10:27:34.791Z,99.90
2019-05-22T10:30:04.709Z,99.90
2019-05-22T10:32:32.553Z,99.90
2019-05-22T10:34:59.574Z,99.90
2019-05-22T10:37:27.245Z,99.90
2019-05-22T10:39:54.514Z,99.90
2019-05-22T10:42:21.595Z,99.90
2019-05-22T10:44:48.832Z,99.90
2019-05-22T10:47:18.639Z,99.90
2019-05-22T10:49:44.335Z,99.90
2019-05-22T10:52:11.395Z,99.90
2019-05-22T10:54:38.058Z,99.90
2019-05-22T10:57:05.943Z,99.90
2019-05-22T10:59:32.576Z,99.90
2019-05-22T11:01:59.318Z,99.90
2019-05-22T11:04:27.080Z,99.90
2019-05-22T11:06:56.490Z,99.90
2019-05-22T11:09:23.264Z,99.90
2019-05-22T11:11:50.033Z,99.90
2019-05-22T11:14:17.058Z,99.90
2019-05-22T11:16:44.829Z,99.90
2019-05-22T11:19:11.895Z,99.90
2019-05-22T11:21:38.578Z,99.90
2019-05-22T11:24:06.040Z,99.90
2019-05-22T11:26:33.713Z,99.90
2019-05-22T11:29:01.746Z,99.90
2019-05-22T11:31:28.606Z,99.90
2019-05-22T11:33:55.396Z,99.90
2019-05-22T11:36:22.827Z,99.90
2019-05-22T11:38:49.848Z,99.90
2019-05-22T11:41:17.507Z,99.90
2019-05-22T11:43:45.652Z,99.90
2019-05-22T11:46:13.999Z,99.90
2019-05-22T11:48:40.570Z,99.90
2019-05-22T11:51:07.485Z,99.90
2019-05-22T11:53:34.862Z,99.90
2019-05-22T11:56:01.396Z,99.90
2019-05-22T11:58:28.383Z,99.90
2019-05-22T12:00:55.486Z,99.90
2019-05-22T12:03:22.553Z,99.90
2019-05-22T12:05:50.001Z,99.90
2019-05-22T12:08:16.650Z,99.90
2019-05-22T12:10:43.350Z,99.90
2019-05-22T12:13:10.174Z,99.90
2019-05-22T12:15:36.825Z,99.90
2019-05-22T12:18:04.646Z,99.90
2019-05-22T12:20:32.069Z,99.90
2019-05-22T12:22:59.019Z,99.20
2019-05-22T12:25:27.369Z,99.90
2019-05-22T12:27:54.623Z,98.60
2019-05-22T12:30:21.777Z,98.70
2019-05-22T12:32:51.717Z,97.90
2019-05-22T12:35:21.921Z,96.40
2019-05-22T12:37:51.195Z,96.90
2019-05-22T12:40:20.646Z,97.50
2019-05-22T12:42:47.878Z,95.30
2019-05-22T12:45:18.263Z,95.40
2019-05-22T12:47:45.655Z,93.80
2019-05-22T12:50:15.231Z,94.10
2019-05-22T12:52:46.893Z,92.50
2019-05-22T12:55:14.787Z,92.30
2019-05-22T12:57:41.538Z,93.10
2019-05-22T13:00:09.191Z,91.60
2019-05-22T13:02:36.233Z,90.90
2019-05-22T13:05:05.203Z,92.10
2019-05-22T13:07:32.140Z,93.00
2019-05-22T13:10:00.032Z,91.20
2019-05-22T13:12:26.778Z,91.90
2019-05-22T13:15:08.264Z,91.40
2019-05-22T13:17:23.040Z,91.80
2019-05-22T13:19:50.603Z,91.60
2019-05-22T13:22:22.839Z,90.10
2019-05-22T13:24:49.470Z,91.80
2019-05-22T13:27:19.216Z,92.20
2019-05-22T13:29:47.382Z,91.70
2019-05-22T13:32:16.647Z,92.70
2019-05-22T13:34:44.304Z,92.10
2019-05-22T13:37:11.846Z,92.10
2019-05-22T13:39:40.071Z,91.20
2019-05-22T13:42:07.518Z,91.80
2019-05-22T13:44:34.595Z,90.90
2019-05-22T13:47:01.410Z,90.90
2019-05-22T13:49:30.158Z,91.30
2019-05-22T13:51:58.705Z,91.50
2019-05-22T13:54:25.842Z,91.00
2019-05-22T13:56:52.501Z,90.60
2019-05-22T13:59:19.685Z,90.00
2019-05-22T14:01:46.578Z,90.00
2019-05-22T14:04:13.422Z,88.60
2019-05-22T14:06:40.412Z,86.50
2019-05-22T14:09:10.678Z,89.30
2019-05-22T14:11:37.423Z,89.10
2019-05-22T14:14:04.481Z,83.50
2019-05-22T14:16:31.145Z,83.20
2019-05-22T14:18:57.808Z,81.60
2019-05-22T14:21:24.542Z,80.10
2019-05-22T14:23:51.097Z,85.50
2019-05-22T14:26:17.876Z,82.60
2019-05-22T14:28:44.605Z,80.50
2019-05-22T14:31:11.343Z,80.60
2019-05-22T14:33:40.559Z,81.90
2019-05-22T14:36:07.671Z,79.80
2019-05-22T14:38:35.113Z,78.20
2019-05-22T14:41:02.766Z,73.00
2019-05-22T14:43:29.916Z,64.80
2019-05-22T14:45:57.150Z,61.60
2019-05-22T14:48:24.440Z,59.20
2019-05-22T14:50:51.101Z,58.70
2019-05-22T14:53:18.063Z,58.10
2019-05-22T14:55:46.620Z,63.40
2019-05-22T14:58:13.879Z,64.10
2019-05-22T15:00:41.543Z,68.80
2019-05-22T15:03:08.503Z,70.00
2019-05-22T15:05:35.662Z,69.20
2019-05-22T15:08:03.448Z,73.00
2019-05-22T15:10:30.140Z,76.00
2019-05-22T15:12:56.792Z,81.10
2019-05-22T15:15:24.246Z,83.10
2019-05-22T15:17:51.024Z,85.10
2019-05-22T15:20:23.283Z,87.40
2019-05-22T15:22:50.103Z,90.30
2019-05-22T15:25:17.190Z,91.50
2019-05-22T15:27:44.371Z,82.20
2019-05-22T15:30:11.939Z,85.10
2019-05-22T15:32:39.421Z,90.90
2019-05-22T15:35:06.861Z,93.50
2019-05-22T15:37:35.543Z,94.30
2019-05-22T15:40:05.523Z,98.80
2019-05-22T15:42:39.245Z,99.90
2019-05-22T15:45:20.245Z,99.90
2019-05-22T15:47:55.316Z,99.90
2019-05-22T15:50:20.756Z,99.90
2019-05-22T15:52:54.026Z,99.90
2019-05-22T15:55:31.483Z,99.90
2019-05-22T15:58:00.119Z,99.90
2019-05-22T16:00:30.550Z,99.90
2019-05-22T16:03:00.053Z,99.90
2019-05-22T16:05:28.418Z,99.90
2019-05-22T16:07:55.091Z,99.90
2019-05-22T16:10:22.666Z,99.90
2019-05-22T16:12:49.428Z,99.90
2019-05-22T16:15:17.991Z,99.90
2019-05-22T16:17:47.548Z,99.90
2019-05-22T16:20:17.933Z,99.90
2019-05-22T16:22:44.996Z,99.90
2019-05-22T16:25:12.455Z,99.90
2019-05-22T16:27:39.764Z,99.90
2019-05-22T16:30:06.718Z,99.90
2019-05-22T16:32:36.296Z,99.90
2019-05-22T16:35:05.094Z,99.90
2019-05-22T16:37:36.910Z,99.90
2019-05-22T16:40:09.034Z,99.90
2019-05-22T16:42:36.587Z,99.90
2019-05-22T16:45:06.346Z,99.90
2019-05-22T16:47:35.439Z,99.90
2019-05-22T16:50:03.674Z,99.90
2019-05-22T16:52:30.897Z,99.90
2019-05-22T16:54:57.907Z,99.90
2019-05-22T16:57:25.051Z,99.90
2019-05-22T16:59:51.775Z,99.90
2019-05-22T17:02:31.342Z,99.90
2019-05-22T18:16:04.635Z,99.90
2019-05-22T18:52:40.456Z,99.90
2019-05-22T18:55:04.603Z,99.90
2019-05-22T18:58:00.353Z,99.90
2019-05-22T19:06:41.775Z,99.90
2019-05-22T19:09:09.285Z,99.90
2019-05-22T19:11:41.432Z,99.90
2019-05-22T20:55:26.074Z,99.90
2019-05-22T20:57:57.589Z,99.90
2019-05-22T21:00:26.276Z,99.90
2019-05-22T21:02:57.595Z,99.90
2019-05-22T21:05:25.415Z,99.90
2019-05-22T21:08:00.520Z,99.90
2019-05-22T21:10:28.865Z,99.90
2019-05-22T21:13:01.077Z,99.90
2019-05-22T21:15:29.079Z,99.90
2019-05-22T21:17:59.208Z,99.90
2019-05-22T21:20:30.017Z,99.90
2019-05-22T21:22:59.853Z,99.90
2019-05-22T21:25:27.669Z,99.90
2019-05-22T21:27:55.577Z,99.90
2019-05-22T21:30:25.659Z,99.90
2019-05-22T21:32:54.375Z,99.90
2019-05-22T21:35:23.247Z,99.90
2019-05-22T21:37:51.036Z,99.90
2019-05-22T21:40:19.228Z,99.90
2019-05-22T21:42:46.842Z,99.90
2019-05-22T21:45:14.327Z,99.90
2019-05-22T21:47:41.135Z,99.90
2019-05-22T21:50:09.822Z,99.90
2019-05-22T21:52:36.953Z,99.90
2019-05-22T21:55:24.387Z,99.90
2019-05-22T21:57:52.242Z,99.90
2019-05-22T22:00:40.102Z,99.90
2019-05-22T22:03:11.756Z,99.90
2019-05-22T22:05:39.996Z,99.90
2019-05-22T22:08:07.113Z,99.90
2019-05-22T22:10:33.810Z,99.90
2019-05-22T22:13:02.064Z,99.90
2019-05-22T22:15:31.016Z,99.90
2019-05-22T22:17:57.958Z,99.90
2019-05-22T22:20:24.628Z,99.90
2019-05-22T22:22:51.904Z,99.90
2019-05-22T22:25:21.082Z,99.90
2019-05-22T22:27:48.370Z,99.90
2019-05-22T22:30:19.857Z,99.90
2019-05-22T22:32:46.698Z,99.90
2019-05-22T22:35:14.574Z,99.90
2019-05-22T22:37:41.240Z,99.90
2019-05-22T22:40:08.853Z,99.90
2019-05-22T22:42:37.434Z,99.90
2019-05-22T22:45:09.413Z,99.90
2019-05-22T22:47:38.042Z,99.90
2019-05-22T22:50:07.190Z,99.90
2019-05-22T22:52:34.442Z,99.90
2019-05-22T22:55:01.102Z,99.90
2019-05-22T22:57:29.463Z,99.90
2019-05-22T22:59:56.832Z,99.90
2019-05-22T23:02:28.880Z,99.90
2019-05-22T23:04:55.427Z,99.90
2019-05-22T23:07:24.194Z,99.90
2019-05-22T23:09:51.634Z,99.90
2019-05-22T23:12:19.062Z,99.90
2019-05-22T23:14:50.046Z,99.90
2019-05-22T23:17:18.386Z,99.90
2019-05-22T23:19:45.451Z,99.90
2019-05-22T23:22:19.488Z,99.90
2019-05-22T23:24:48.958Z,99.90
2019-05-22T23:27:17.402Z,99.90
2019-05-22T23:29:44.562Z,99.90
2019-05-22T23:32:11.895Z,99.90
2019-05-22T23:34:38.743Z,99.90
2019-05-22T23:37:07.802Z,99.90
2019-05-22T23:39:35.571Z,99.90
2019-05-22T23:42:07.706Z,99.90
2019-05-22T23:44:35.348Z,99.90
2019-05-22T23:47:03.365Z,99.90
2019-05-22T23:49:30.831Z,99.90
2019-05-22T23:51:57.888Z,99.90
2019-05-22T23:54:25.361Z,99.90
2019-05-22T23:56:53.889Z,99.90
2019-05-22T23:59:20.768Z,99.90
